createdAt,value
2024-04-22T00:00:20.073Z,2.95
2024-04-22T00:02:46.838Z,2.70
2024-04-22T00:05:15.898Z,2.67
2024-04-22T00:07:42.676Z,2.90
2024-04-22T00:10:09.552Z,2.50
2024-04-22T00:12:36.491Z,2.92
2024-04-22T00:15:03.296Z,2.70
2024-04-22T00:17:30.135Z,3.00
2024-04-22T00:19:58.663Z,3.03
2024-04-22T00:22:25.445Z,2.92
2024-04-22T00:24:52.385Z,3.03
2024-04-22T00:27:19.442Z,3.00
2024-04-22T00:29:46.211Z,2.75
2024-04-22T00:32:12.994Z,2.70
2024-04-22T00:34:40.065Z,2.70
2024-04-22T00:37:06.868Z,2.58
2024-04-22T00:39:33.591Z,2.78
2024-04-22T00:42:00.854Z,2.63
2024-04-22T00:44:27.686Z,2.60
2024-04-22T00:46:54.417Z,3.00
2024-04-22T00:49:21.945Z,2.88
2024-04-22T00:51:49.479Z,2.97
2024-04-22T00:54:16.576Z,3.15
2024-04-22T00:56:44.123Z,3.67
2024-04-22T00:59:11.308Z,3.22
2024-04-22T01:01:38.464Z,3.63
2024-04-22T01:04:06.015Z,2.97
2024-04-22T01:06:32.968Z,3.00
2024-04-22T01:08:59.685Z,3.33
2024-04-22T01:11:26.566Z,3.20
2024-04-22T01:13:55.622Z,3.30
2024-04-22T01:16:22.588Z,3.20
2024-04-22T01:18:49.458Z,3.67
2024-04-22T01:21:16.160Z,2.97
2024-04-22T01:23:44.886Z,3.28
2024-04-22T01:26:13.062Z,2.92
2024-04-22T01:28:39.883Z,3.40
2024-04-22T01:31:06.773Z,3.05
2024-04-22T01:33:33.506Z,3.35
2024-04-22T01:36:00.215Z,3.33
2024-04-22T01:38:27.021Z,3.40
2024-04-22T01:40:53.788Z,3.25
2024-04-22T01:43:20.513Z,3.42
2024-04-22T01:45:47.407Z,3.30
2024-04-22T01:48:14.474Z,3.15
2024-04-22T01:50:41.182Z,3.22
2024-04-22T01:53:08.009Z,3.55
2024-04-22T01:55:34.863Z,3.30
2024-04-22T01:58:01.524Z,2.90
2024-04-22T02:00:28.222Z,2.95
2024-04-22T02:02:55.248Z,2.53
2024-04-22T02:05:22.151Z,2.70
2024-04-22T02:07:48.889Z,2.60
2024-04-22T02:10:22.957Z,2.50
2024-04-22T02:12:52.318Z,2.88
2024-04-22T02:15:19.052Z,2.75
2024-04-22T02:17:45.855Z,2.65
2024-04-22T02:20:12.835Z,2.85
2024-04-22T02:22:39.905Z,2.78
2024-04-22T02:25:07.116Z,2.88
2024-04-22T02:27:33.905Z,3.00
2024-04-22T02:30:00.800Z,3.10
2024-04-22T02:32:28.919Z,3.40
2024-04-22T02:34:55.713Z,3.20
2024-04-22T02:37:22.675Z,3.42
2024-04-22T02:39:49.628Z,3.17
2024-04-22T02:42:16.413Z,3.05
2024-04-22T02:44:43.235Z,3.20
2024-04-22T02:47:10.110Z,3.25
2024-04-22T02:49:37.010Z,3.25
2024-04-22T02:52:03.833Z,3.05
2024-04-22T02:54:32.989Z,3.00
2024-04-22T02:56:59.839Z,2.95
2024-04-22T02:59:26.527Z,2.80
2024-04-22T03:01:53.282Z,2.80
2024-04-22T03:04:20.260Z,2.78
2024-04-22T03:06:48.493Z,3.10
2024-04-22T03:09:15.677Z,2.60
2024-04-22T03:11:42.771Z,3.00
2024-04-22T03:14:09.629Z,2.63
2024-04-22T03:16:36.466Z,2.45
2024-04-22T03:19:03.443Z,2.60
2024-04-22T03:21:30.250Z,2.60
2024-04-22T03:23:57.137Z,2.30
2024-04-22T03:26:24.092Z,2.95
2024-04-22T03:28:56.092Z,2.85
2024-04-22T03:31:23.262Z,2.70
2024-04-22T03:33:49.982Z,3.13
2024-04-22T03:36:16.902Z,2.92
2024-04-22T03:38:43.650Z,2.63
2024-04-22T03:41:10.352Z,2.83
2024-04-22T03:43:37.482Z,3.00
2024-04-22T03:46:23.215Z,3.35
2024-04-22T03:49:08.759Z,3.80
2024-04-22T03:51:35.516Z,4.00
2024-04-22T03:54:02.315Z,3.85
2024-04-22T03:56:29.379Z,4.20
2024-04-22T03:58:56.343Z,3.90
2024-04-22T04:01:23.342Z,3.97
2024-04-22T04:03:50.226Z,4.35
2024-04-22T04:06:16.991Z,4.28
2024-04-22T04:08:43.917Z,4.15
2024-04-22T04:11:15.786Z,4.38
2024-04-22T04:13:47.007Z,4.60
2024-04-22T04:16:14.142Z,4.22
2024-04-22T04:18:41.233Z,4.30
2024-04-22T04:21:08.314Z,4.30
2024-04-22T04:23:35.052Z,4.53
2024-04-22T04:26:03.361Z,5.22
2024-04-22T04:28:30.168Z,5.10
2024-04-22T04:30:57.947Z,4.43
2024-04-22T04:33:24.882Z,4.32
2024-04-22T04:36:06.055Z,4.40
2024-04-22T04:38:33.382Z,4.85
2024-04-22T04:41:00.316Z,4.53
2024-04-22T04:43:27.669Z,5.05
2024-04-22T04:45:55.070Z,5.35
2024-04-22T04:48:23.047Z,5.32
2024-04-22T04:50:50.566Z,6.13
2024-04-22T04:53:19.030Z,5.65
2024-04-22T04:55:49.983Z,6.45
2024-04-22T04:58:17.887Z,6.18
2024-04-22T05:00:45.253Z,6.28
2024-04-22T05:03:12.262Z,5.70
2024-04-22T05:05:39.103Z,5.72
2024-04-22T05:08:06.154Z,5.47
2024-04-22T05:10:32.933Z,5.93
2024-04-22T05:12:59.642Z,6.63
2024-04-22T05:15:26.688Z,6.95
2024-04-22T05:17:53.540Z,6.53
2024-04-22T05:20:20.340Z,6.80
2024-04-22T05:22:47.084Z,5.95
2024-04-22T05:25:13.846Z,6.03
2024-04-22T05:27:40.687Z,6.35
2024-04-22T05:30:07.793Z,6.53
2024-04-22T05:32:34.749Z,6.07
2024-04-22T05:35:20.262Z,6.50
2024-04-22T05:37:47.032Z,6.75
2024-04-22T05:40:14.045Z,6.80
2024-04-22T05:42:41.059Z,7.78
2024-04-22T05:45:07.934Z,8.50
2024-04-22T05:47:34.958Z,7.28
2024-04-22T05:50:03.458Z,7.90
2024-04-22T05:52:30.446Z,7.80
2024-04-22T05:54:57.392Z,7.82
2024-04-22T05:57:24.151Z,7.90
2024-04-22T05:59:51.088Z,7.10
2024-04-22T06:02:18.037Z,7.22
2024-04-22T06:04:45.001Z,6.30
2024-04-22T06:07:11.733Z,6.20
2024-04-22T06:09:38.597Z,5.90
2024-04-22T06:12:15.270Z,6.53
2024-04-22T06:14:46.168Z,6.25
2024-04-22T06:17:13.876Z,6.50
2024-04-22T06:19:40.930Z,5.57
2024-04-22T06:22:08.049Z,5.97
2024-04-22T09:17:37.952Z,2.25
2024-04-22T09:20:06.031Z,2.70
2024-04-22T09:22:33.335Z,2.92
2024-04-22T09:25:00.227Z,2.60
2024-04-22T09:27:29.164Z,2.85
2024-04-22T09:30:03.480Z,2.75
2024-04-22T09:32:32.828Z,3.08
2024-04-22T09:35:24.875Z,2.67
2024-04-22T09:37:52.415Z,2.90
2024-04-22T09:40:20.466Z,2.53
2024-04-22T09:42:48.696Z,2.50
2024-04-22T09:45:16.766Z,2.40
2024-04-22T09:47:44.164Z,2.50
2024-04-22T09:50:12.169Z,2.50
2024-04-22T09:52:40.637Z,2.50
2024-04-22T09:55:08.559Z,2.33
2024-04-22T09:57:40.063Z,2.10
2024-04-22T10:00:08.568Z,2.47
2024-04-22T10:02:35.886Z,2.22
2024-04-22T10:05:03.173Z,2.40
2024-04-22T10:07:30.731Z,2.40
2024-04-22T10:10:00.744Z,2.65
2024-04-22T10:12:30.992Z,2.40
2024-04-22T10:15:08.360Z,2.40
2024-04-22T10:17:35.362Z,2.33
2024-04-22T10:20:02.727Z,2.50
2024-04-22T10:22:34.656Z,2.65
2024-04-22T10:25:07.207Z,2.35
2024-04-22T10:27:34.217Z,2.30
2024-04-22T10:30:02.196Z,2.20
2024-04-22T10:32:29.597Z,2.90
2024-04-22T10:34:56.502Z,2.45
2024-04-22T10:37:23.462Z,2.53
2024-04-22T10:39:50.724Z,2.63
2024-04-22T10:42:19.248Z,2.60
2024-04-22T10:44:46.630Z,2.83
2024-04-22T10:47:13.602Z,2.65
2024-04-22T10:49:42.970Z,2.88
2024-04-22T10:52:10.087Z,2.50
2024-04-22T10:54:37.036Z,2.47
2024-04-22T10:57:04.678Z,2.67
2024-04-22T10:59:31.876Z,2.63
2024-04-22T11:01:59.055Z,2.47
2024-04-22T11:04:26.197Z,2.80
2024-04-22T11:06:52.927Z,2.58
2024-04-22T11:09:20.133Z,3.20
2024-04-22T11:11:47.531Z,2.88
2024-04-22T11:14:15.328Z,2.50
2024-04-22T11:16:42.219Z,2.58
2024-04-22T11:19:09.211Z,2.30
2024-04-22T11:21:36.283Z,2.80
2024-04-22T11:24:03.874Z,2.70
2024-04-22T11:26:33.003Z,2.70
2024-04-22T11:29:02.692Z,2.70
2024-04-22T11:31:29.840Z,2.65
2024-04-22T11:33:56.578Z,2.70
2024-04-22T11:36:26.946Z,2.58
2024-04-22T11:38:56.036Z,2.80
2024-04-22T11:41:23.243Z,2.38
2024-04-22T11:43:50.241Z,2.25
2024-04-22T11:46:17.085Z,2.75
2024-04-22T11:48:44.056Z,2.55
2024-04-22T11:51:11.071Z,2.50
2024-04-22T11:53:37.893Z,2.63
2024-04-22T11:56:07.113Z,2.50
2024-04-22T11:58:35.375Z,2.30
2024-04-22T12:01:02.469Z,2.50
2024-04-22T12:03:29.220Z,2.88
2024-04-22T12:05:56.121Z,2.97
2024-04-22T12:08:23.034Z,2.88
2024-04-22T12:10:50.002Z,2.65
2024-04-22T12:13:16.890Z,2.95
2024-04-22T12:15:43.824Z,2.80
2024-04-22T12:18:10.594Z,3.13
2024-04-22T12:20:37.398Z,3.10
2024-04-22T12:23:04.555Z,2.80
2024-04-22T12:25:31.563Z,2.83
2024-04-22T12:28:05.799Z,2.90
2024-04-22T12:30:40.459Z,3.13
2024-04-22T12:33:07.433Z,3.33
2024-04-22T12:35:39.218Z,3.45
2024-04-22T12:38:07.132Z,3.45
2024-04-22T12:40:35.226Z,3.42
2024-04-22T12:43:03.473Z,3.10
2024-04-22T12:45:30.669Z,3.80
2024-04-22T12:48:16.154Z,2.88
2024-04-22T12:50:49.857Z,3.60
2024-04-22T12:53:17.058Z,3.30
2024-04-22T12:55:44.038Z,2.72
2024-04-22T12:58:11.476Z,3.03
2024-04-22T13:00:38.676Z,3.20
2024-04-22T13:03:06.005Z,3.92
2024-04-22T13:05:33.119Z,2.97
2024-04-22T13:08:00.542Z,2.80
2024-04-22T13:10:27.434Z,2.83
2024-04-22T13:12:54.215Z,3.40
2024-04-22T13:15:20.925Z,3.80
2024-04-22T13:17:47.696Z,3.55
2024-04-22T13:20:14.971Z,4.05
2024-04-22T13:22:41.758Z,3.40
2024-04-22T13:25:09.615Z,3.78
2024-04-22T13:27:36.540Z,3.10
2024-04-22T13:30:09.722Z,3.78
2024-04-22T13:32:38.351Z,4.18
2024-04-22T13:35:05.604Z,3.80
2024-04-22T13:37:32.502Z,3.85
2024-04-22T13:39:59.350Z,4.30
2024-04-22T13:42:30.221Z,4.30
2024-04-22T13:44:58.861Z,3.75
2024-04-22T13:47:26.102Z,4.32
2024-04-22T13:49:52.896Z,4.32
2024-04-22T13:52:19.960Z,4.13
2024-04-22T13:54:47.154Z,4.65
2024-04-22T13:57:13.899Z,3.85
2024-04-22T13:59:40.594Z,3.75
2024-04-22T14:02:07.816Z,3.58
2024-04-22T14:04:34.602Z,3.42
2024-04-22T14:07:04.649Z,3.20
2024-04-22T14:09:33.177Z,3.17
2024-04-22T14:12:00.031Z,3.22
2024-04-22T14:14:26.757Z,3.25
2024-04-22T14:16:53.666Z,3.08
2024-04-22T14:19:20.481Z,3.13
2024-04-22T14:21:47.196Z,2.97
2024-04-22T14:24:14.147Z,3.25
2024-04-22T14:26:40.938Z,4.00
2024-04-22T14:29:07.645Z,3.78
2024-04-22T14:31:34.778Z,3.80
2024-04-22T14:34:02.999Z,3.45
2024-04-22T14:36:29.789Z,3.25
2024-04-22T14:38:56.780Z,3.30
2024-04-22T14:41:23.820Z,2.85
2024-04-22T14:43:50.589Z,3.00
2024-04-22T14:46:19.312Z,3.20
2024-04-22T14:48:46.108Z,2.88
2024-04-22T14:51:13.644Z,2.90
2024-04-22T14:53:40.308Z,2.70
2024-04-22T14:56:07.296Z,2.85
2024-04-22T14:58:34.035Z,2.70
2024-04-22T15:01:00.857Z,2.58
2024-04-22T15:03:27.679Z,2.65
2024-04-22T15:05:54.493Z,3.00
2024-04-22T15:08:21.391Z,2.58
2024-04-22T15:10:53.168Z,2.67
2024-04-22T15:13:20.380Z,2.65
2024-04-22T15:15:47.285Z,2.50
2024-04-22T15:18:14.258Z,2.75
2024-04-22T15:20:41.247Z,2.60
2024-04-22T15:23:08.267Z,2.55
2024-04-22T15:25:34.991Z,3.10
2024-04-22T15:28:01.824Z,2.58
2024-04-22T15:30:30.062Z,2.33
2024-04-22T15:32:57.058Z,2.20
2024-04-22T15:35:23.847Z,2.28
2024-04-22T15:37:52.504Z,2.60
2024-04-22T15:40:19.441Z,2.58
2024-04-22T15:42:46.233Z,2.80
2024-04-22T15:45:15.115Z,2.88
2024-04-22T15:47:41.850Z,2.85
2024-04-22T15:50:08.702Z,3.20
2024-04-22T15:52:35.757Z,2.80
2024-04-22T15:55:02.520Z,3.33
2024-04-22T15:57:29.184Z,3.33
2024-04-22T16:00:06.598Z,3.50
2024-04-22T16:02:37.087Z,3.13
2024-04-22T16:05:04.659Z,3.13
2024-04-22T16:07:31.648Z,2.85
2024-04-22T16:09:58.558Z,2.90
2024-04-22T16:12:25.497Z,3.05
2024-04-22T16:14:52.262Z,3.40
2024-04-22T16:17:19.079Z,3.33
2024-04-22T16:19:45.955Z,3.38
2024-04-22T16:22:12.702Z,3.40
2024-04-22T16:24:39.430Z,3.20
2024-04-22T16:27:06.106Z,3.63
2024-04-22T16:29:32.821Z,3.40
2024-04-22T16:31:59.650Z,3.67
2024-04-22T16:34:26.430Z,3.83
2024-04-22T16:36:53.133Z,3.80
2024-04-22T16:39:19.824Z,3.72
2024-04-22T16:41:46.745Z,3.70
2024-04-22T16:44:13.860Z,3.65
2024-04-22T16:46:40.560Z,3.70
2024-04-22T16:49:07.340Z,3.55
2024-04-22T16:51:34.049Z,3.97
2024-04-22T16:54:00.708Z,3.72
2024-04-22T16:56:27.568Z,3.67
2024-04-22T16:58:54.430Z,4.15
2024-04-22T17:01:21.227Z,3.65
2024-04-22T17:03:48.331Z,3.50
2024-04-22T17:06:17.222Z,4.10
2024-04-22T17:08:44.269Z,4.28
2024-04-22T17:11:11.997Z,4.30
2024-04-22T17:13:38.926Z,4.30
2024-04-22T17:16:06.316Z,4.40
2024-04-22T17:18:33.190Z,3.92
2024-04-22T17:21:00.096Z,3.80
2024-04-22T17:23:28.411Z,3.80
2024-04-22T17:25:55.477Z,4.38
2024-04-22T17:28:22.449Z,3.60
2024-04-22T17:30:55.315Z,3.70
2024-04-22T17:33:22.402Z,3.55
2024-04-22T17:35:50.657Z,3.63
2024-04-22T17:38:19.028Z,3.65
2024-04-22T17:40:56.774Z,3.70
2024-04-22T17:43:24.103Z,4.63
2024-04-22T17:46:07.377Z,4.30
2024-04-22T17:48:35.433Z,4.50
2024-04-22T17:51:02.706Z,4.47
2024-04-22T17:53:30.214Z,4.25
2024-04-22T17:55:57.055Z,4.25
2024-04-22T17:58:24.001Z,4.03
2024-04-22T18:00:51.179Z,4.32
2024-04-22T18:03:18.436Z,4.35
2024-04-22T18:05:45.738Z,4.35
2024-04-22T18:08:12.545Z,4.20
2024-04-22T18:10:43.601Z,3.80
2024-04-22T18:13:10.341Z,3.88
2024-04-22T18:15:37.309Z,3.88
2024-04-22T18:18:04.424Z,3.92
2024-04-22T18:20:32.048Z,3.60
2024-04-22T18:22:59.214Z,3.72
2024-04-22T18:25:33.299Z,3.70
2024-04-22T18:28:03.932Z,3.90
2024-04-22T18:30:31.717Z,3.53
2024-04-22T18:33:01.522Z,3.28
2024-04-22T18:35:29.292Z,3.25
2024-04-22T18:37:56.041Z,3.33
2024-04-22T18:40:23.120Z,3.33
2024-04-22T18:42:50.029Z,3.63
2024-04-22T18:45:16.856Z,3.45
2024-04-22T18:47:43.682Z,3.15
2024-04-22T18:50:10.931Z,3.30
2024-04-22T18:52:37.928Z,2.95
2024-04-22T18:55:05.110Z,3.25
2024-04-22T18:57:32.349Z,4.55
2024-04-22T18:59:59.064Z,3.75
2024-04-22T19:02:25.876Z,3.50
2024-04-22T19:04:52.809Z,3.80
2024-04-22T19:07:19.575Z,3.20
2024-04-22T19:09:46.239Z,3.35
2024-04-22T19:12:12.984Z,3.53
2024-04-22T19:14:41.140Z,3.50
2024-04-22T19:17:09.466Z,3.10
2024-04-22T19:19:36.873Z,3.00
2024-04-22T19:22:03.689Z,3.30
2024-04-22T19:24:30.331Z,2.97
2024-04-22T19:26:57.199Z,2.60
2024-04-22T19:29:23.981Z,3.20
2024-04-22T19:31:50.763Z,2.90
2024-04-22T19:34:17.993Z,3.15
2024-04-22T19:36:44.718Z,2.72
2024-04-22T19:39:13.334Z,2.75
2024-04-22T19:41:45.420Z,3.17
2024-04-22T19:44:12.144Z,2.90
2024-04-22T19:46:38.854Z,3.20
2024-04-22T19:49:06.407Z,2.95
2024-04-22T19:51:33.076Z,2.95
2024-04-22T19:53:59.779Z,2.60
2024-04-22T19:56:26.848Z,2.70
2024-04-22T19:58:53.664Z,2.53
2024-04-22T20:01:20.498Z,3.13
2024-04-22T20:03:47.915Z,2.63
2024-04-22T20:06:14.831Z,2.95
2024-04-22T20:08:42.254Z,3.00
2024-04-22T20:11:09.302Z,2.90
2024-04-22T20:13:36.146Z,3.22
2024-04-22T20:16:16.532Z,3.25
2024-04-22T20:18:55.027Z,3.10
2024-04-22T20:21:22.011Z,3.58
2024-04-22T20:23:48.818Z,3.13
2024-04-22T20:26:15.538Z,3.03
2024-04-22T20:28:42.354Z,2.92
2024-04-22T20:31:09.678Z,2.83
2024-04-22T20:33:36.642Z,3.63
2024-04-22T20:36:04.616Z,3.15
2024-04-22T20:38:31.492Z,2.90
2024-04-22T20:41:02.467Z,2.85
2024-04-22T20:43:30.797Z,2.53
2024-04-22T20:45:59.359Z,3.03
2024-04-22T20:48:26.872Z,2.65
2024-04-22T20:51:01.170Z,2.78
2024-04-22T20:53:28.726Z,3.17
2024-04-22T20:55:56.478Z,2.63
2024-04-22T20:58:23.516Z,2.80
2024-04-22T21:01:07.253Z,2.85
2024-04-22T21:03:35.073Z,3.38
2024-04-22T21:06:06.932Z,3.15
2024-04-22T21:08:34.075Z,3.03
2024-04-22T21:11:03.318Z,3.10
2024-04-22T21:13:41.593Z,2.70
2024-04-22T21:16:08.955Z,2.95
2024-04-22T21:18:35.675Z,2.70
2024-04-22T21:21:04.497Z,2.72
2024-04-22T21:23:34.439Z,2.67
2024-04-22T21:26:01.230Z,2.95
2024-04-22T21:28:29.648Z,3.30
2024-04-22T21:30:56.784Z,2.75
2024-04-22T21:33:43.066Z,2.83
2024-04-22T21:36:11.356Z,2.90
2024-04-22T21:38:38.267Z,2.88
2024-04-22T21:41:05.095Z,3.03
2024-04-22T21:43:31.920Z,3.20
2024-04-22T21:45:58.891Z,2.92
2024-04-22T21:48:25.678Z,3.15
2024-04-22T21:50:53.485Z,2.88
2024-04-22T21:53:20.868Z,2.63
2024-04-22T21:55:51.721Z,3.05
2024-04-22T21:58:56.387Z,3.10
2024-04-22T22:02:00.886Z,3.03
2024-04-22T22:05:05.382Z,3.95
2024-04-22T22:07:32.008Z,3.55
2024-04-22T22:09:58.920Z,3.28
2024-04-22T22:12:25.666Z,3.88
2024-04-22T22:14:52.751Z,3.05
2024-04-22T22:17:20.110Z,3.50
2024-04-22T22:19:49.881Z,4.03
2024-04-22T22:22:16.811Z,3.53
2024-04-22T22:24:44.715Z,3.28
2024-04-22T22:27:15.833Z,3.55
2024-04-22T22:29:43.330Z,3.40
2024-04-22T22:32:10.676Z,3.78
2024-04-22T22:34:37.687Z,4.20
2024-04-22T22:37:06.426Z,3.50
2024-04-22T22:39:34.016Z,3.58
2024-04-22T22:42:01.599Z,4.10
2024-04-22T22:44:28.581Z,3.95
2024-04-22T22:47:06.572Z,3.97
2024-04-22T22:49:33.778Z,4.03
2024-04-22T22:52:00.609Z,3.85
2024-04-22T22:54:27.627Z,3.75
2024-04-22T22:57:01.516Z,4.03
2024-04-22T22:59:29.008Z,3.65
2024-04-22T23:01:57.143Z,4.28
2024-04-22T23:04:24.323Z,3.70
2024-04-22T23:06:51.223Z,4.03
2024-04-22T23:09:17.935Z,3.63
2024-04-22T23:11:44.609Z,3.88
2024-04-22T23:14:11.577Z,4.13
2024-04-22T23:16:38.379Z,3.95
2024-04-22T23:19:05.101Z,4.57
2024-04-22T23:21:32.112Z,4.43
2024-04-22T23:23:58.890Z,4.50
2024-04-22T23:26:25.548Z,4.65
2024-04-22T23:28:52.750Z,5.32
2024-04-22T23:31:19.544Z,5.13
2024-04-22T23:33:46.455Z,5.63
2024-04-22T23:36:13.545Z,5.53
2024-04-22T23:38:40.319Z,6.30
2024-04-22T23:41:06.969Z,6.10
2024-04-22T23:43:33.860Z,6.05
2024-04-22T23:46:00.620Z,5.43
2024-04-22T23:48:27.361Z,5.45
2024-04-22T23:50:54.935Z,5.57
2024-04-22T23:53:21.639Z,5.72
2024-04-22T23:55:48.412Z,5.65
2024-04-22T23:58:15.275Z,5.30
